»·PEaware :: QXE2323 KSLC-KBOI

QXE2323 :: KSLC-KBOI

FLIGHT INFORMATION

Flight Status: Arrived
Operator:
Horizon Air
More flights by this operator :: More flights under this callsign
Pilot: Bruno O. (13284)
Aircraft: DEHAVILLAND DASH 8 400
(DH8D)
More flights by this aircraft type
Origin: KSLC Salt Lake City Intl
United States
Destination: KBOI Boise Air Terminal/Gowen
United States
More flights between these airports :: More routes between these airports
Route: +TCH J15 TWF BROPH SPUUD3
File this flight plan on PilotEdge
Remarks:
Altitude:
(Current/Filed)
24,000ft
Speed:
(Current/Filed)
320kts
Departed: 31-Jan-18 09:09 AM
Arrived: 31-Jan-18 10:18 AM
Distance/Time
Traveled:
252nm/1:09
Distance/Time
To Go:
Arrived

Flight Plot

Page will automatically refresh every two minutes.

Flight plan parsing failed; only flown route is shown


Map Options




Map Legend


Flown Route
Filed Route
Departure Airport
Arrival Airport
Navaid (VOR, NDB)
Fix

Horizontal Profiles

Position Reports

Time Latitude Longitude Heading Altitude Ground
Speed
31-Jan-18 08:42 40.782618 -111.977962 84 4234ft 0kts
31-Jan-18 08:43 40.782618 -111.977962 84 4234ft 0kts
31-Jan-18 08:44 40.782618 -111.977962 84 4234ft 0kts
31-Jan-18 08:45 40.782618 -111.977962 84 4234ft 0kts
31-Jan-18 08:46 40.782618 -111.977962 84 4234ft 0kts
31-Jan-18 08:47 40.782618 -111.977962 84 4234ft 0kts
31-Jan-18 08:48 40.782618 -111.977962 84 4234ft 0kts
31-Jan-18 08:49 40.782618 -111.977962 84 4234ft 0kts
31-Jan-18 08:50 40.782618 -111.977962 84 4234ft 0kts
31-Jan-18 08:51 40.782618 -111.977962 84 4234ft 0kts
31-Jan-18 08:52 40.782618 -111.977962 84 4234ft 0kts
31-Jan-18 08:53 40.782618 -111.977962 84 4234ft 0kts
31-Jan-18 08:54 40.782618 -111.977962 84 4234ft 0kts
31-Jan-18 08:55 40.782618 -111.977962 84 4234ft 0kts
31-Jan-18 08:56 40.782618 -111.977962 84 4234ft 0kts
31-Jan-18 08:57 40.782618 -111.977962 84 4234ft 0kts
31-Jan-18 08:58 40.782618 -111.977962 84 4234ft 0kts
31-Jan-18 08:59 40.782618 -111.977962 84 4234ft 0kts
31-Jan-18 09:00 40.782618 -111.977962 84 4234ft 0kts
31-Jan-18 09:01 40.782618 -111.977962 84 4234ft 0kts
31-Jan-18 09:02 40.782618 -111.977962 84 4234ft 0kts
31-Jan-18 09:03 40.782618 -111.977962 84 4234ft 0kts
31-Jan-18 09:04 40.782618 -111.977962 84 4234ft 0kts
31-Jan-18 09:05 40.782618 -111.977962 84 4234ft 0kts
31-Jan-18 09:06 40.782618 -111.977962 84 4234ft 0kts
31-Jan-18 09:07 40.782618 -111.977962 84 4234ft 0kts
31-Jan-18 09:08 40.782618 -111.977962 84 4234ft 0kts
31-Jan-18 09:09 40.782618 -111.977962 84 4234ft 0kts
31-Jan-18 09:10 40.782618 -111.977962 84 4234ft 0kts
31-Jan-18 09:11 40.782657 -111.977385 85 4234ft 9kts
31-Jan-18 09:12 40.778474 -111.975376 174 4234ft 20kts
31-Jan-18 09:13 40.774378 -111.974513 97 4234ft 6kts
31-Jan-18 09:14 40.774400 -111.974298 67 4234ft 4kts
31-Jan-18 09:15 40.784563 -111.974265 354 4234ft 126kts
31-Jan-18 09:16 40.829633 -111.981911 351 6143ft 175kts
31-Jan-18 09:17 40.883813 -111.986598 355 8648ft 206kts
31-Jan-18 09:18 40.948333 -111.988215 355 9994ft 272kts
31-Jan-18 09:19 41.025917 -111.988818 354 11495ft 279kts
31-Jan-18 09:20 41.079287 -112.045842 301 13029ft 252kts
31-Jan-18 09:21 41.107151 -112.128113 271 14334ft 250kts
31-Jan-18 09:22 41.106410 -112.220261 272 15476ft 251kts
31-Jan-18 09:23 41.105296 -112.312620 272 16520ft 250kts
31-Jan-18 09:24 41.128388 -112.393463 311 17593ft 247kts
31-Jan-18 09:25 41.175795 -112.456756 308 18719ft 238kts
31-Jan-18 09:26 41.219361 -112.521552 306 19732ft 232kts
31-Jan-18 09:27 41.261313 -112.584960 305 20732ft 226kts
31-Jan-18 09:28 41.302384 -112.647059 305 21681ft 221kts
31-Jan-18 09:29 41.342446 -112.707864 305 22653ft 214kts
31-Jan-18 09:30 41.381069 -112.766653 305 23565ft 209kts
31-Jan-18 09:31 41.419443 -112.825163 305 24114ft 215kts
31-Jan-18 09:32 41.460646 -112.888382 306 24152ft 235kts
31-Jan-18 09:33 41.504703 -112.956023 306 24150ft 248kts
31-Jan-18 09:34 41.550598 -113.026745 306 24149ft 257kts
31-Jan-18 09:35 41.598085 -113.099847 306 24148ft 263kts
31-Jan-18 09:36 41.646226 -113.174111 306 24150ft 267kts
31-Jan-18 09:37 41.694988 -113.249501 306 24153ft 269kts
31-Jan-18 09:38 41.743889 -113.325288 306 24160ft 270kts
31-Jan-18 09:39 41.792947 -113.401508 306 24165ft 271kts
31-Jan-18 09:40 41.842226 -113.478260 306 24170ft 271kts
31-Jan-18 09:41 41.891352 -113.554967 306 24175ft 272kts
31-Jan-18 09:42 41.940455 -113.631800 306 24179ft 272kts
31-Jan-18 09:43 41.989666 -113.708993 306 24183ft 272kts
31-Jan-18 09:44 42.038577 -113.785897 306 24189ft 271kts
31-Jan-18 09:45 42.087465 -113.863059 306 24201ft 271kts
31-Jan-18 09:46 42.136215 -113.940177 306 24204ft 271kts
31-Jan-18 09:47 42.184931 -114.017429 306 24207ft 271kts
31-Jan-18 09:48 42.233770 -114.095044 306 24213ft 271kts
31-Jan-18 09:49 42.282327 -114.172421 306 24216ft 271kts
31-Jan-18 09:50 42.330839 -114.249945 306 24220ft 271kts
31-Jan-18 09:51 42.379450 -114.327824 306 24224ft 270kts
31-Jan-18 09:52 42.427678 -114.405309 306 24227ft 269kts
31-Jan-18 09:53 42.475895 -114.483023 305 24228ft 269kts
31-Jan-18 09:54 42.524162 -114.559975 306 24228ft 268kts
31-Jan-18 09:55 42.572339 -114.636774 306 24225ft 267kts
31-Jan-18 09:56 42.620449 -114.713808 306 24221ft 267kts
31-Jan-18 09:57 42.668161 -114.790371 305 24220ft 266kts
31-Jan-18 09:58 42.715671 -114.866808 305 24220ft 265kts
31-Jan-18 09:59 42.766101 -114.940577 309 24208ft 266kts
31-Jan-18 10:00 42.817073 -115.013159 308 24208ft 265kts
31-Jan-18 10:01 42.867800 -115.086174 308 24210ft 265kts
31-Jan-18 10:02 42.918202 -115.158894 308 24213ft 264kts
31-Jan-18 10:03 42.968347 -115.231593 307 24218ft 263kts
31-Jan-18 10:04 43.018533 -115.304563 307 24222ft 263kts
31-Jan-18 10:05 43.068245 -115.377291 308 24230ft 262kts
31-Jan-18 10:06 43.117934 -115.449755 308 24235ft 261kts
31-Jan-18 10:07 43.168077 -115.523250 308 22742ft 267kts
31-Jan-18 10:08 43.218769 -115.597450 308 20820ft 268kts
31-Jan-18 10:09 43.260997 -115.659558 308 19298ft 270kts
31-Jan-18 10:10 43.299473 -115.747537 296 17467ft 273kts
31-Jan-18 10:11 43.340450 -115.856624 296 15272ft 280kts
31-Jan-18 10:12 43.376289 -115.952951 296 13329ft 285kts
31-Jan-18 10:13 43.405704 -116.032388 296 11732ft 272kts
31-Jan-18 10:14 43.438917 -116.121966 296 9932ft 257kts
31-Jan-18 10:15 43.471640 -116.211267 295 8148ft 266kts
31-Jan-18 10:16 43.501415 -116.299458 294 7035ft 247kts
31-Jan-18 10:17 43.536266 -116.378860 304 6388ft 234kts
31-Jan-18 10:18 43.572473 -116.450180 306 5370ft 219kts
31-Jan-18 10:19 43.622544 -116.443784 60 4497ft 197kts
31-Jan-18 10:20 43.616328 -116.379810 112 4416ft 165kts
31-Jan-18 10:21 43.597353 -116.321722 114 4088ft 148kts
31-Jan-18 10:22 43.581027 -116.274600 114 3359ft 126kts
31-Jan-18 10:23 43.565894 -116.230533 115 2841ft 80kts
31-Jan-18 10:24 43.565003 -116.223596 9 2841ft 8kts
31-Jan-18 10:25 43.566766 -116.222279 29 2841ft 8kts
31-Jan-18 10:26 43.567207 -116.222032 23 2841ft 0kts
31-Jan-18 10:27 43.567207 -116.222032 23 2841ft 0kts

Navigation Log

Ident Type
Flight plan parsing failed, navigation log unavailable